sensor_id;sensor_type;location;lat;lon;timestamp;pressure;altitude;pressure_sealevel;temperature;humidity
67109;BME280;54027;50.786;7.058;2023-07-30T00:01:11;100559.47;;;16.56;100.00
67109;BME280;54027;50.786;7.058;2023-07-30T00:03:36;100556.03;;;16.54;100.00
67109;BME280;54027;50.786;7.058;2023-07-30T00:06:01;100552.63;;;16.52;100.00
67109;BME280;54027;50.786;7.058;2023-07-30T00:08:27;100559.72;;;16.48;100.00
67109;BME280;54027;50.786;7.058;2023-07-30T00:10:52;100567.53;;;16.48;100.00
67109;BME280;54027;50.786;7.058;2023-07-30T00:13:18;100555.34;;;16.49;100.00
67109;BME280;54027;50.786;7.058;2023-07-30T00:15:46;100558.75;;;16.51;100.00
67109;BME280;54027;50.786;7.058;2023-07-30T00:18:12;100563.94;;;16.52;100.00
67109;BME280;54027;50.786;7.058;2023-07-30T00:20:37;100558.72;;;16.52;100.00
67109;BME280;54027;50.786;7.058;2023-07-30T00:23:03;100554.34;;;16.53;100.00
67109;BME280;54027;50.786;7.058;2023-07-30T00:25:28;100551.78;;;16.51;100.00
67109;BME280;54027;50.786;7.058;2023-07-30T00:27:53;100561.31;;;16.52;100.00
67109;BME280;54027;50.786;7.058;2023-07-30T00:30:19;100557.00;;;16.51;100.00
67109;BME280;54027;50.786;7.058;2023-07-30T00:32:44;100560.47;;;16.52;100.00
67109;BME280;54027;50.786;7.058;2023-07-30T00:35:10;100557.06;;;16.50;100.00
67109;BME280;54027;50.786;7.058;2023-07-30T00:37:36;100558.75;;;16.51;100.00
67109;BME280;54027;50.786;7.058;2023-07-30T00:40:02;100561.44;;;16.49;100.00
67109;BME280;54027;50.786;7.058;2023-07-30T00:42:28;100553.63;;;16.48;100.00
67109;BME280;54027;50.786;7.058;2023-07-30T00:44:54;100566.75;;;16.46;100.00
67109;BME280;54027;50.786;7.058;2023-07-30T00:47:20;100559.78;;;16.47;100.00
67109;BME280;54027;50.786;7.058;2023-07-30T00:49:46;100572.94;;;16.44;100.00
67109;BME280;54027;50.786;7.058;2023-07-30T00:52:12;100571.22;;;16.43;100.00
67109;BME280;54027;50.786;7.058;2023-07-30T00:54:38;100574.00;;;16.38;100.00
67109;BME280;54027;50.786;7.058;2023-07-30T00:57:04;100574.16;;;16.33;100.00
67109;BME280;54027;50.786;7.058;2023-07-30T00:59:32;100576.00;;;16.30;100.00
67109;BME280;54027;50.786;7.058;2023-07-30T01:01:58;100577.06;;;16.24;100.00
67109;BME280;54027;50.786;7.058;2023-07-30T01:04:24;100575.50;;;16.20;100.00
67109;BME280;54027;50.786;7.058;2023-07-30T01:06:49;100573.94;;;16.15;100.00
67109;BME280;54027;50.786;7.058;2023-07-30T01:09:15;100575.84;;;16.10;100.00
67109;BME280;54027;50.786;7.058;2023-07-30T01:11:41;100581.16;;;16.07;100.00
67109;BME280;54027;50.786;7.058;2023-07-30T01:14:09;100578.66;;;16.04;100.00
67109;BME280;54027;50.786;7.058;2023-07-30T01:16:35;100588.31;;;16.02;100.00
67109;BME280;54027;50.786;7.058;2023-07-30T01:19:00;100590.94;;;16.00;100.00
67109;BME280;54027;50.786;7.058;2023-07-30T01:21:34;100602.28;;;15.99;100.00
67109;BME280;54027;50.786;7.058;2023-07-30T01:24:00;100597.97;;;15.98;100.00
67109;BME280;54027;50.786;7.058;2023-07-30T01:26:30;100605.78;;;15.98;100.00
67109;BME280;54027;50.786;7.058;2023-07-30T01:29:00;100602.31;;;15.98;100.00
67109;BME280;54027;50.786;7.058;2023-07-30T01:31:30;100605.69;;;16.01;100.00
67109;BME280;54027;50.786;7.058;2023-07-30T01:33:57;100609.84;;;16.07;100.00
67109;BME280;54027;50.786;7.058;2023-07-30T01:36:24;100611.34;;;16.14;100.00
67109;BME280;54027;50.786;7.058;2023-07-30T01:38:51;100610.22;;;16.21;100.00
67109;BME280;54027;50.786;7.058;2023-07-30T01:41:16;100615.25;;;16.27;100.00
67109;BME280;54027;50.786;7.058;2023-07-30T01:43:41;100617.63;;;16.33;100.00
67109;BME280;54027;50.786;7.058;2023-07-30T01:46:07;100614.03;;;16.37;100.00
67109;BME280;54027;50.786;7.058;2023-07-30T01:48:32;100621.69;;;16.42;100.00
67109;BME280;54027;50.786;7.058;2023-07-30T01:50:57;100616.31;;;16.46;100.00
67109;BME280;54027;50.786;7.058;2023-07-30T01:53:23;100617.00;;;16.51;100.00
67109;BME280;54027;50.786;7.058;2023-07-30T01:55:48;100620.47;;;16.52;100.00
67109;BME280;54027;50.786;7.058;2023-07-30T01:58:13;100617.81;;;16.53;100.00
67109;BME280;54027;50.786;7.058;2023-07-30T02:00:39;100615.22;;;16.53;100.00
67109;BME280;54027;50.786;7.058;2023-07-30T02:03:05;100612.44;;;16.58;100.00
67109;BME280;54027;50.786;7.058;2023-07-30T02:05:30;100608.94;;;16.59;100.00
67109;BME280;54027;50.786;7.058;2023-07-30T02:07:56;100613.19;;;16.61;100.00
67109;BME280;54027;50.786;7.058;2023-07-30T02:10:21;100610.50;;;16.63;100.00
67109;BME280;54027;50.786;7.058;2023-07-30T02:12:46;100615.69;;;16.64;100.00
67109;BME280;54027;50.786;7.058;2023-07-30T02:15:12;100604.28;;;16.67;100.00
67109;BME280;54027;50.786;7.058;2023-07-30T02:17:37;100612.97;;;16.67;100.00
67109;BME280;54027;50.786;7.058;2023-07-30T02:20:03;100612.09;;;16.67;100.00
67109;BME280;54027;50.786;7.058;2023-07-30T02:22:28;100606.00;;;16.68;100.00
67109;BME280;54027;50.786;7.058;2023-07-30T02:24:53;100611.16;;;16.69;100.00
67109;BME280;54027;50.786;7.058;2023-07-30T02:27:19;100611.94;;;16.71;100.00
67109;BME280;54027;50.786;7.058;2023-07-30T02:29:44;100613.75;;;16.69;100.00
67109;BME280;54027;50.786;7.058;2023-07-30T02:32:09;100611.88;;;16.73;100.00
67109;BME280;54027;50.786;7.058;2023-07-30T02:34:35;100617.03;;;16.74;100.00
67109;BME280;54027;50.786;7.058;2023-07-30T02:37:00;100611.78;;;16.76;100.00
67109;BME280;54027;50.786;7.058;2023-07-30T02:39:25;100614.44;;;16.74;100.00
67109;BME280;54027;50.786;7.058;2023-07-30T02:41:51;100605.69;;;16.77;100.00
67109;BME280;54027;50.786;7.058;2023-07-30T02:44:16;100607.41;;;16.76;100.00
67109;BME280;54027;50.786;7.058;2023-07-30T02:46:41;100603.91;;;16.77;100.00
67109;BME280;54027;50.786;7.058;2023-07-30T02:49:07;100601.31;;;16.77;100.00
67109;BME280;54027;50.786;7.058;2023-07-30T02:51:33;100602.19;;;16.76;100.00
67109;BME280;54027;50.786;7.058;2023-07-30T02:54:03;100604.91;;;16.73;100.00
67109;BME280;54027;50.786;7.058;2023-07-30T02:56:29;100606.81;;;16.68;100.00
67109;BME280;54027;50.786;7.058;2023-07-30T02:58:54;100606.13;;;16.63;100.00
67109;BME280;54027;50.786;7.058;2023-07-30T03:01:20;100608.94;;;16.59;100.00
67109;BME280;54027;50.786;7.058;2023-07-30T03:03:45;100605.69;;;16.52;100.00
67109;BME280;54027;50.786;7.058;2023-07-30T03:06:10;100616.22;;;16.49;100.00
67109;BME280;54027;50.786;7.058;2023-07-30T03:08:35;100622.50;;;16.44;100.00
67109;BME280;54027;50.786;7.058;2023-07-30T03:11:02;100616.56;;;16.39;100.00
67109;BME280;54027;50.786;7.058;2023-07-30T03:13:27;100621.00;;;16.37;100.00
67109;BME280;54027;50.786;7.058;2023-07-30T03:15:53;100627.94;;;16.38;100.00
67109;BME280;54027;50.786;7.058;2023-07-30T03:18:18;100632.28;;;16.37;100.00
67109;BME280;54027;50.786;7.058;2023-07-30T03:20:44;100636.63;;;16.38;100.00
67109;BME280;54027;50.786;7.058;2023-07-30T03:23:09;100641.78;;;16.40;100.00
67109;BME280;54027;50.786;7.058;2023-07-30T03:25:34;100641.72;;;16.41;100.00
67109;BME280;54027;50.786;7.058;2023-07-30T03:27:59;100641.63;;;16.44;100.00
67109;BME280;54027;50.786;7.058;2023-07-30T03:30:25;100638.91;;;16.47;100.00
67109;BME280;54027;50.786;7.058;2023-07-30T03:32:50;100646.63;;;16.50;100.00
67109;BME280;54027;50.786;7.058;2023-07-30T03:35:15;100643.91;;;16.53;100.00
67109;BME280;54027;50.786;7.058;2023-07-30T03:37:41;100643.78;;;16.56;100.00
67109;BME280;54027;50.786;7.058;2023-07-30T03:40:06;100640.28;;;16.57;100.00
67109;BME280;54027;50.786;7.058;2023-07-30T03:42:32;100639.31;;;16.60;100.00
67109;BME280;54027;50.786;7.058;2023-07-30T03:44:57;100639.28;;;16.61;100.00
67109;BME280;54027;50.786;7.058;2023-07-30T03:47:23;100647.09;;;16.61;100.00
67109;BME280;54027;50.786;7.058;2023-07-30T03:49:48;100644.50;;;16.61;100.00
67109;BME280;54027;50.786;7.058;2023-07-30T03:52:13;100647.09;;;16.61;100.00
67109;BME280;54027;50.786;7.058;2023-07-30T03:54:38;100644.53;;;16.60;100.00
67109;BME280;54027;50.786;7.058;2023-07-30T03:57:04;100645.47;;;16.59;100.00
67109;BME280;54027;50.786;7.058;2023-07-30T03:59:29;100639.41;;;16.57;100.00
67109;BME280;54027;50.786;7.058;2023-07-30T04:01:55;100644.72;;;16.55;100.00
67109;BME280;54027;50.786;7.058;2023-07-30T04:04:20;100639.63;;;16.51;100.00
67109;BME280;54027;50.786;7.058;2023-07-30T04:06:45;100645.06;;;16.45;100.00
67109;BME280;54027;50.786;7.058;2023-07-30T04:09:11;100661.69;;;16.42;100.00
67109;BME280;54027;50.786;7.058;2023-07-30T04:11:36;100667.06;;;16.38;100.00
67109;BME280;54027;50.786;7.058;2023-07-30T04:14:01;100670.53;;;16.38;100.00
67109;BME280;54027;50.786;7.058;2023-07-30T04:16:30;100664.38;;;16.39;100.00
67109;BME280;54027;50.786;7.058;2023-07-30T04:18:55;100666.78;;;16.45;100.00
67109;BME280;54027;50.786;7.058;2023-07-30T04:21:20;100665.72;;;16.51;100.00
67109;BME280;54027;50.786;7.058;2023-07-30T04:23:46;100663.88;;;16.54;100.00
67109;BME280;54027;50.786;7.058;2023-07-30T04:26:11;100662.91;;;16.57;100.00
67109;BME280;54027;50.786;7.058;2023-07-30T04:28:37;100652.16;;;16.66;93.74
67109;BME280;54027;50.786;7.058;2023-07-30T04:31:02;100655.28;;;16.77;91.79
67109;BME280;54027;50.786;7.058;2023-07-30T04:33:27;100662.19;;;16.78;91.45
67109;BME280;54027;50.786;7.058;2023-07-30T04:35:53;100663.94;;;16.77;91.83
67109;BME280;54027;50.786;7.058;2023-07-30T04:38:18;100655.28;;;16.77;89.15
67109;BME280;54027;50.786;7.058;2023-07-30T04:40:43;100654.31;;;16.79;89.49
67109;BME280;54027;50.786;7.058;2023-07-30T04:43:09;100657.78;;;16.80;89.90
67109;BME280;54027;50.786;7.058;2023-07-30T04:45:34;100657.00;;;16.76;89.53
67109;BME280;54027;50.786;7.058;2023-07-30T04:47:59;100666.56;;;16.77;89.13
67109;BME280;54027;50.786;7.058;2023-07-30T04:50:25;100675.28;;;16.76;89.48
67109;BME280;54027;50.786;7.058;2023-07-30T04:52:51;100665.72;;;16.77;88.95
67109;BME280;54027;50.786;7.058;2023-07-30T04:55:16;100663.13;;;16.75;90.29
67109;BME280;54027;50.786;7.058;2023-07-30T04:57:42;100671.06;;;16.72;90.39
67109;BME280;54027;50.786;7.058;2023-07-30T05:00:07;100662.44;;;16.70;89.30
67109;BME280;54027;50.786;7.058;2023-07-30T05:02:33;100667.56;;;16.73;90.00
67109;BME280;54027;50.786;7.058;2023-07-30T05:04:58;100677.06;;;16.74;91.19
67109;BME280;54027;50.786;7.058;2023-07-30T05:07:23;100670.09;;;16.75;91.51
67109;BME280;54027;50.786;7.058;2023-07-30T05:09:49;100672.53;;;16.81;91.54
67109;BME280;54027;50.786;7.058;2023-07-30T05:12:14;100678.50;;;16.84;91.12
67109;BME280;54027;50.786;7.058;2023-07-30T05:14:39;100675.69;;;16.91;92.62
67109;BME280;54027;50.786;7.058;2023-07-30T05:17:05;100672.06;;;16.95;90.40
67109;BME280;54027;50.786;7.058;2023-07-30T05:19:30;100665.69;;;17.02;89.53
67109;BME280;54027;50.786;7.058;2023-07-30T05:21:57;100660.44;;;17.03;89.22
67109;BME280;54027;50.786;7.058;2023-07-30T05:24:22;100667.22;;;17.07;88.90
67109;BME280;54027;50.786;7.058;2023-07-30T05:26:48;100668.97;;;17.07;88.51
67109;BME280;54027;50.786;7.058;2023-07-30T05:29:13;100665.34;;;17.11;88.80
67109;BME280;54027;50.786;7.058;2023-07-30T05:31:38;100662.75;;;17.11;87.10
67109;BME280;54027;50.786;7.058;2023-07-30T05:34:03;100671.25;;;17.16;88.47
67109;BME280;54027;50.786;7.058;2023-07-30T05:36:29;100666.03;;;17.16;89.00
67109;BME280;54027;50.786;7.058;2023-07-30T05:38:54;100670.34;;;17.17;90.00
67109;BME280;54027;50.786;7.058;2023-07-30T05:41:19;100671.03;;;17.22;90.67
67109;BME280;54027;50.786;7.058;2023-07-30T05:43:46;100664.13;;;17.21;89.23
67109;BME280;54027;50.786;7.058;2023-07-30T05:46:12;100672.75;;;17.23;88.44
67109;BME280;54027;50.786;7.058;2023-07-30T05:48:37;100667.59;;;17.21;88.21
67109;BME280;54027;50.786;7.058;2023-07-30T05:51:02;100670.91;;;17.25;88.80
67109;BME280;54027;50.786;7.058;2023-07-30T05:53:28;100674.22;;;17.30;89.54
67109;BME280;54027;50.786;7.058;2023-07-30T05:55:53;100662.94;;;17.29;86.06
67109;BME280;54027;50.786;7.058;2023-07-30T05:58:18;100666.16;;;17.36;86.02
67109;BME280;54027;50.786;7.058;2023-07-30T06:00:44;100662.47;;;17.41;85.46
67109;BME280;54027;50.786;7.058;2023-07-30T06:03:09;100663.88;;;17.50;85.88
67109;BME280;54027;50.786;7.058;2023-07-30T06:05:39;100669.72;;;17.57;85.14
67109;BME280;54027;50.786;7.058;2023-07-30T06:08:05;100680.06;;;17.60;85.54
67109;BME280;54027;50.786;7.058;2023-07-30T06:10:30;100681.03;;;17.57;86.36
67109;BME280;54027;50.786;7.058;2023-07-30T06:12:56;100680.56;;;17.46;86.92
67109;BME280;54027;50.786;7.058;2023-07-30T06:15:21;100693.88;;;17.40;88.03
67109;BME280;54027;50.786;7.058;2023-07-30T06:17:46;100690.56;;;17.35;88.42
67109;BME280;54027;50.786;7.058;2023-07-30T06:20:12;100692.41;;;17.33;88.75
67109;BME280;54027;50.786;7.058;2023-07-30T06:22:37;100684.72;;;17.28;88.99
67109;BME280;54027;50.786;7.058;2023-07-30T06:25:03;100700.50;;;17.25;89.41
67109;BME280;54027;50.786;7.058;2023-07-30T06:27:28;100698.88;;;17.23;89.91
67109;BME280;54027;50.786;7.058;2023-07-30T06:29:53;100691.25;;;17.17;89.34
67109;BME280;54027;50.786;7.058;2023-07-30T06:32:19;100695.59;;;17.18;89.47
67109;BME280;54027;50.786;7.058;2023-07-30T06:34:44;100696.31;;;17.21;89.81
67109;BME280;54027;50.786;7.058;2023-07-30T06:37:09;100709.28;;;17.24;88.43
67109;BME280;54027;50.786;7.058;2023-07-30T06:39:35;100701.25;;;17.29;88.20
67109;BME280;54027;50.786;7.058;2023-07-30T06:42:00;100703.66;;;17.35;87.47
67109;BME280;54027;50.786;7.058;2023-07-30T06:44:25;100703.41;;;17.41;87.53
67109;BME280;54027;50.786;7.058;2023-07-30T06:46:51;100714.63;;;17.45;88.02
67109;BME280;54027;50.786;7.058;2023-07-30T06:49:16;100733.69;;;17.47;88.51
67109;BME280;54027;50.786;7.058;2023-07-30T06:51:41;100743.41;;;17.43;88.72
67109;BME280;54027;50.786;7.058;2023-07-30T06:54:07;100746.22;;;17.37;89.36
67109;BME280;54027;50.786;7.058;2023-07-30T06:56:32;100743.69;;;17.35;89.97
67109;BME280;54027;50.786;7.058;2023-07-30T06:58:57;100748.97;;;17.34;90.99
67109;BME280;54027;50.786;7.058;2023-07-30T07:01:23;100754.25;;;17.32;91.45
67109;BME280;54027;50.786;7.058;2023-07-30T07:03:48;100766.38;;;17.33;91.70
67109;BME280;54027;50.786;7.058;2023-07-30T07:06:13;100764.47;;;17.38;91.72
67109;BME280;54027;50.786;7.058;2023-07-30T07:08:39;100753.75;;;17.46;92.05
67109;BME280;54027;50.786;7.058;2023-07-30T07:11:04;100743.69;;;17.59;91.90
67109;BME280;54027;50.786;7.058;2023-07-30T07:13:29;100746.84;;;17.67;92.46
67109;BME280;54027;50.786;7.058;2023-07-30T07:15:55;100746.75;;;17.70;91.27
67109;BME280;54027;50.786;7.058;2023-07-30T07:18:21;100747.25;;;17.79;92.71
67109;BME280;54027;50.786;7.058;2023-07-30T07:20:46;100746.25;;;17.83;91.31
67109;BME280;54027;50.786;7.058;2023-07-30T07:23:12;100748.56;;;17.91;91.15
67109;BME280;54027;50.786;7.058;2023-07-30T07:25:38;100748.19;;;18.02;90.26
67109;BME280;54027;50.786;7.058;2023-07-30T07:28:04;100739.03;;;18.12;89.86
67109;BME280;54027;50.786;7.058;2023-07-30T07:30:29;100735.28;;;18.19;88.46
67109;BME280;54027;50.786;7.058;2023-07-30T07:32:54;100741.69;;;18.32;88.87
67109;BME280;54027;50.786;7.058;2023-07-30T07:35:20;100744.41;;;18.30;89.15
67109;BME280;54027;50.786;7.058;2023-07-30T07:37:46;100739.91;;;18.34;89.79
67109;BME280;54027;50.786;7.058;2023-07-30T07:40:11;100733.56;;;18.39;89.23
67109;BME280;54027;50.786;7.058;2023-07-30T07:42:37;100740.44;;;18.42;88.08
67109;BME280;54027;50.786;7.058;2023-07-30T07:45:03;100740.19;;;18.48;86.86
67109;BME280;54027;50.786;7.058;2023-07-30T07:47:29;100755.69;;;18.52;86.80
67109;BME280;54027;50.786;7.058;2023-07-30T07:49:54;100752.88;;;18.57;86.36
67109;BME280;54027;50.786;7.058;2023-07-30T07:52:20;100751.44;;;18.70;86.41
67109;BME280;54027;50.786;7.058;2023-07-30T07:54:45;100752.13;;;18.75;85.93
67109;BME280;54027;50.786;7.058;2023-07-30T07:57:11;100751.31;;;18.73;85.35
67109;BME280;54027;50.786;7.058;2023-07-30T07:59:37;100755.06;;;18.68;85.83
67109;BME280;54027;50.786;7.058;2023-07-30T08:02:02;100753.75;;;18.78;86.14
67109;BME280;54027;50.786;7.058;2023-07-30T08:04:28;100746.16;;;18.72;83.46
67109;BME280;54027;50.786;7.058;2023-07-30T08:06:53;100754.03;;;18.72;83.35
67109;BME280;54027;50.786;7.058;2023-07-30T08:09:18;100740.97;;;18.70;81.77
67109;BME280;54027;50.786;7.058;2023-07-30T08:11:44;100741.31;;;18.83;81.91
67109;BME280;54027;50.786;7.058;2023-07-30T08:14:09;100738.16;;;18.96;81.96
67109;BME280;54027;50.786;7.058;2023-07-30T08:16:34;100748.16;;;19.07;81.33
67109;BME280;54027;50.786;7.058;2023-07-30T08:19:00;100743.63;;;19.11;81.94
67109;BME280;54027;50.786;7.058;2023-07-30T08:21:25;100746.53;;;19.04;78.85
67109;BME280;54027;50.786;7.058;2023-07-30T08:23:50;100745.81;;;19.01;78.63
67109;BME280;54027;50.786;7.058;2023-07-30T08:26:16;100749.75;;;19.11;79.34
67109;BME280;54027;50.786;7.058;2023-07-30T08:28:41;100728.28;;;19.22;76.88
67109;BME280;54027;50.786;7.058;2023-07-30T08:31:06;100704.38;;;19.09;73.66
67109;BME280;54027;50.786;7.058;2023-07-30T08:33:32;100735.06;;;19.07;74.73
67109;BME280;54027;50.786;7.058;2023-07-30T08:35:58;100741.34;;;19.03;74.56
67109;BME280;54027;50.786;7.058;2023-07-30T08:38:24;100748.75;;;18.93;74.33
67109;BME280;54027;50.786;7.058;2023-07-30T08:40:50;100747.06;;;18.92;75.37
67109;BME280;54027;50.786;7.058;2023-07-30T08:43:16;100763.88;;;18.87;75.38
67109;BME280;54027;50.786;7.058;2023-07-30T08:45:41;100757.16;;;18.80;75.31
67109;BME280;54027;50.786;7.058;2023-07-30T08:48:07;100768.63;;;18.77;76.15
67109;BME280;54027;50.786;7.058;2023-07-30T08:50:32;100752.56;;;18.86;75.43
67109;BME280;54027;50.786;7.058;2023-07-30T08:52:59;100736.94;;;19.03;73.65
67109;BME280;54027;50.786;7.058;2023-07-30T08:55:26;100728.56;;;19.16;73.32
67109;BME280;54027;50.786;7.058;2023-07-30T08:57:55;100727.06;;;19.68;73.10
67109;BME280;54027;50.786;7.058;2023-07-30T09:00:24;100729.97;;;19.99;72.20
67109;BME280;54027;50.786;7.058;2023-07-30T09:02:52;100720.00;;;20.24;71.49
67109;BME280;54027;50.786;7.058;2023-07-30T09:05:20;100713.22;;;20.37;69.64
67109;BME280;54027;50.786;7.058;2023-07-30T09:07:45;100730.69;;;20.38;69.73
67109;BME280;54027;50.786;7.058;2023-07-30T09:10:12;100735.94;;;20.38;69.50
67109;BME280;54027;50.786;7.058;2023-07-30T09:12:37;100712.13;;;20.24;68.22
67109;BME280;54027;50.786;7.058;2023-07-30T09:15:03;100715.84;;;20.37;68.14
67109;BME280;54027;50.786;7.058;2023-07-30T09:17:30;100702.91;;;20.68;66.78
67109;BME280;54027;50.786;7.058;2023-07-30T09:19:55;100703.81;;;20.85;66.63
67109;BME280;54027;50.786;7.058;2023-07-30T09:22:28;100693.97;;;21.05;66.47
67109;BME280;54027;50.786;7.058;2023-07-30T09:24:54;100692.13;;;21.40;66.05
67109;BME280;54027;50.786;7.058;2023-07-30T09:27:21;100654.28;;;21.43;61.92
67109;BME280;54027;50.786;7.058;2023-07-30T09:30:02;100684.88;;;21.61;62.97
67109;BME280;54027;50.786;7.058;2023-07-30T09:32:31;100655.84;;;21.62;60.96
67109;BME280;54027;50.786;7.058;2023-07-30T09:35:14;100656.59;;;21.80;60.62
67109;BME280;54027;50.786;7.058;2023-07-30T09:37:41;100649.78;;;21.76;59.36
67109;BME280;54027;50.786;7.058;2023-07-30T09:40:09;100678.38;;;21.51;61.10
67109;BME280;54027;50.786;7.058;2023-07-30T09:42:35;100690.53;;;21.20;61.60
67109;BME280;54027;50.786;7.058;2023-07-30T09:45:05;100695.94;;;20.67;61.50
67109;BME280;54027;50.786;7.058;2023-07-30T09:47:32;100723.97;;;20.50;63.00
67109;BME280;54027;50.786;7.058;2023-07-30T09:49:59;100753.91;;;20.29;64.63
67109;BME280;54027;50.786;7.058;2023-07-30T09:52:24;100741.25;;;20.37;64.54
67109;BME280;54027;50.786;7.058;2023-07-30T09:54:52;100736.69;;;20.57;64.35
67109;BME280;54027;50.786;7.058;2023-07-30T09:57:17;100708.31;;;20.65;62.84
67109;BME280;54027;50.786;7.058;2023-07-30T09:59:42;100695.16;;;20.65;61.79
67109;BME280;54027;50.786;7.058;2023-07-30T10:02:10;100706.31;;;20.70;62.39
67109;BME280;54027;50.786;7.058;2023-07-30T10:04:42;100716.97;;;20.85;63.14
67109;BME280;54027;50.786;7.058;2023-07-30T10:07:13;100703.28;;;20.95;61.87
67109;BME280;54027;50.786;7.058;2023-07-30T10:09:42;100623.75;;;20.92;57.94
67109;BME280;54027;50.786;7.058;2023-07-30T10:12:21;100660.88;;;21.18;59.00
67109;BME280;54027;50.786;7.058;2023-07-30T10:14:48;100632.19;;;21.30;57.64
67109;BME280;54027;50.786;7.058;2023-07-30T10:17:16;100643.06;;;21.39;57.40
67109;BME280;54027;50.786;7.058;2023-07-30T10:19:46;100629.41;;;21.48;55.97
67109;BME280;54027;50.786;7.058;2023-07-30T10:24:39;100642.00;;;21.74;57.12
67109;BME280;54027;50.786;7.058;2023-07-30T10:27:08;100604.88;;;21.95;55.06
67109;BME280;54027;50.786;7.058;2023-07-30T10:29:35;100628.38;;;21.82;55.19
67109;BME280;54027;50.786;7.058;2023-07-30T10:32:05;100622.44;;;21.32;54.81
67109;BME280;54027;50.786;7.058;2023-07-30T10:34:46;100680.84;;;21.05;57.88
67109;BME280;54027;50.786;7.058;2023-07-30T10:37:18;100664.56;;;20.82;57.00
67109;BME280;54027;50.786;7.058;2023-07-30T10:39:48;100700.31;;;20.67;59.11
67109;BME280;54027;50.786;7.058;2023-07-30T10:42:13;100694.16;;;20.51;58.68
67109;BME280;54027;50.786;7.058;2023-07-30T10:44:43;100731.25;;;20.45;60.66
67109;BME280;54027;50.786;7.058;2023-07-30T10:47:09;100735.09;;;20.55;60.50
67109;BME280;54027;50.786;7.058;2023-07-30T10:49:38;100714.03;;;20.74;59.89
67109;BME280;54027;50.786;7.058;2023-07-30T10:52:04;100682.81;;;20.85;58.08
67109;BME280;54027;50.786;7.058;2023-07-30T10:54:36;100683.28;;;20.93;58.29
67109;BME280;54027;50.786;7.058;2023-07-30T10:57:02;100673.50;;;21.27;58.14
67109;BME280;54027;50.786;7.058;2023-07-30T10:59:37;100672.59;;;21.44;57.93
67109;BME280;54027;50.786;7.058;2023-07-30T11:02:03;100674.44;;;21.26;58.43
67109;BME280;54027;50.786;7.058;2023-07-30T11:04:29;100633.97;;;21.29;56.83
67109;BME280;54027;50.786;7.058;2023-07-30T11:06:58;100646.22;;;21.46;56.80
67109;BME280;54027;50.786;7.058;2023-07-30T11:09:25;100624.78;;;22.14;55.58
67109;BME280;54027;50.786;7.058;2023-07-30T11:11:54;100608.00;;;22.01;54.86
67109;BME280;54027;50.786;7.058;2023-07-30T11:14:21;100631.97;;;21.97;55.68
67109;BME280;54027;50.786;7.058;2023-07-30T11:16:53;100623.81;;;21.86;54.74
67109;BME280;54027;50.786;7.058;2023-07-30T11:19:19;100604.13;;;21.93;53.99
67109;BME280;54027;50.786;7.058;2023-07-30T11:21:51;100588.31;;;22.52;52.58
67109;BME280;54027;50.786;7.058;2023-07-30T11:24:20;100560.44;;;22.62;50.41
67109;BME280;54027;50.786;7.058;2023-07-30T11:26:57;100561.47;;;23.02;50.33
67109;BME280;54027;50.786;7.058;2023-07-30T11:29:23;100568.78;;;23.25;50.76
67109;BME280;54027;50.786;7.058;2023-07-30T11:31:48;100510.50;;;23.30;47.09
67109;BME280;54027;50.786;7.058;2023-07-30T11:34:14;100535.19;;;23.15;47.95
67109;BME280;54027;50.786;7.058;2023-07-30T11:36:41;100537.63;;;23.04;47.39
67109;BME280;54027;50.786;7.058;2023-07-30T11:39:07;100559.38;;;23.07;48.16
67109;BME280;54027;50.786;7.058;2023-07-30T11:41:33;100543.38;;;23.24;48.01
67109;BME280;54027;50.786;7.058;2023-07-30T11:43:59;100524.09;;;23.36;46.74
67109;BME280;54027;50.786;7.058;2023-07-30T11:46:24;100538.31;;;23.75;46.96
67109;BME280;54027;50.786;7.058;2023-07-30T11:48:51;100554.03;;;23.50;47.42
67109;BME280;54027;50.786;7.058;2023-07-30T11:51:27;100545.47;;;23.46;47.14
67109;BME280;54027;50.786;7.058;2023-07-30T11:53:55;100536.34;;;23.64;46.66
67109;BME280;54027;50.786;7.058;2023-07-30T11:56:26;100535.53;;;23.76;47.11
67109;BME280;54027;50.786;7.058;2023-07-30T11:58:55;100542.81;;;24.12;46.72
67109;BME280;54027;50.786;7.058;2023-07-30T12:01:23;100551.47;;;24.14;46.88
67109;BME280;54027;50.786;7.058;2023-07-30T12:03:48;100522.25;;;23.90;44.66
67109;BME280;54027;50.786;7.058;2023-07-30T12:06:14;100543.66;;;23.73;45.36
67109;BME280;54027;50.786;7.058;2023-07-30T12:08:39;100556.72;;;23.62;46.21
67109;BME280;54027;50.786;7.058;2023-07-30T12:11:07;100582.25;;;23.62;47.13
67109;BME280;54027;50.786;7.058;2023-07-30T12:13:32;100586.22;;;23.81;47.38
67109;BME280;54027;50.786;7.058;2023-07-30T12:15:59;100558.44;;;24.03;46.20
67109;BME280;54027;50.786;7.058;2023-07-30T12:18:25;100547.41;;;23.83;45.33
67109;BME280;54027;50.786;7.058;2023-07-30T12:20:51;100578.50;;;23.66;46.63
67109;BME280;54027;50.786;7.058;2023-07-30T12:23:18;100606.22;;;23.18;48.02
67109;BME280;54027;50.786;7.058;2023-07-30T12:25:43;100613.72;;;23.10;48.23
67109;BME280;54027;50.786;7.058;2023-07-30T12:28:09;100619.66;;;22.99;48.58
67109;BME280;54027;50.786;7.058;2023-07-30T12:30:35;100651.78;;;22.92;50.39
67109;BME280;54027;50.786;7.058;2023-07-30T12:33:02;100656.56;;;22.99;50.40
67109;BME280;54027;50.786;7.058;2023-07-30T12:35:28;100615.34;;;23.26;48.21
67109;BME280;54027;50.786;7.058;2023-07-30T12:37:53;100602.84;;;23.57;48.02
67109;BME280;54027;50.786;7.058;2023-07-30T12:40:19;100590.53;;;23.70;46.21
67109;BME280;54027;50.786;7.058;2023-07-30T12:42:44;100601.41;;;23.78;47.05